Hageri, Estonia

10:16 PM EEST on June 27, 2017 (GMT +0300)
Kohila | | Change Station

Elev 207 ft 59.16 °N, 24.76 °E | Updated 37 seconds ago

Partly Cloudy
Partly Cloudy
54.1 °F
Feels Like 54.1 °F
N
2.8
Wind Variable Wind from WSW
Gusts 5.8 mph

Today
High -- | Low -- °F
--% Chance of Precip.
Yesterday
High -- | Low -- °F
Precip. -- in
Pressure 29.71 in
Visibility 6.2 miles
Clouds Few 1700 ft
Dew Point 44 °F
Humidity 70%
Rainfall 0.00 in
Snow Depth Not available.
4:08 AM 10:39 PM
Waxing Crescent, 18% visible
METAR EETN 271850Z 26015KT 9999 FEW017 12/09 Q1006 NOSIG
Pressure 29.71 in
Visibility 6.2 miles
Clouds Few 1700 ft
Dew Point 44 °F
Humidity 70%
Rainfall 0.00 in
Snow Depth Not available.
4:08 AM 10:39 PM
Waxing Crescent, 18% visible
METAR EETN 271850Z 26015KT 9999 FEW017 12/09 Q1006 NOSIG

Get Severe Weather Alerts

Thanks for signing up!

Be on the lookout for a verification email in your inbox.

You'll start receiving the daily forecast at 6 AM.

×

10-Day Weather Forecast

×

Almanac

Astronomy

Jun. 27, 2017 Rise Set
Actual Time
Civil Twilight
Nautical Twilight
Astronomical Twilight
Moon
Length of Visible Light
Length of Day
Tomorrow will be .
, % of the Moon is Illuminated

Today's Extremes

Country Highs Country Lows

Community

WunderPhotos

Category 6

Welcome to Category 6. This is the collective home for Weather Underground's featured writeups by Dr. Jeff Masters (right), Bob Henson (left), Chris Burt, and other regular contributors.

Nearby

Air Quality

  Air Quality AQ Index Pollutant
Not available.

Snow Depth

Station Depth Elevation

Earthquake Activity

City Distance Mag. Time & Date
Minimum magnitude displayed is 2.5.

Coastal Water Temperatures

Place Temperature

Stations

Nearby Weather Stations

Station Location Temp. Windchill Dew Point Humidity Wind Precip. Elev Updated Type